Hundvaag 1 weather for Nov 2007
Month no. 245
Obs.
Da.
Temp. Dew Point Precip. Wind
Speed
Wind gusts Cloud cover Press. Humidity Wind dir. Sunny OPT
01.11.2007 9,3   18,4 0,0   3 1015,6 92,0 292,5 1 55,0 %
02.11.2007 4,5   2,0 3,2   10 1028,0 89,0 0,0 1 82,5 %
03.11.2007 9,9   6,1 10,0   1 1017,6 73,0 270,0   55,0 %
04.11.2007 5,3   0,6 3,0   10 1025,7 77,0 337,5 1 85,0 %
05.11.2007 7,8   0,0 4,0   0 1017,9 74,0 180,0   60,0 %
06.11.2007 3,2   1,5 13,0   3 1013,2 83,0 315,0 1 57,5 %
07.11.2007 6,6   11,8 8,0   3 1000,0 76,0 337,5 1 55,0 %
08.11.2007 7,3   3,0 0,0   2 999,0 91,0 112,5   62,5 %
09.11.2007 6,2   5,7 21,0   6 994,6 58,0 315,0 1 60,0 %
10.11.2007 2,6   8,0 4,0   3 1006,4 81,0 247,5 1 57,5 %
11.11.2007 1,1   1,2 4,0   9 1003,4 89,0 45,0 1 75,0 %
12.11.2007 4,3   4,8 3,0   10 1011,5 81,0 0,0 1 80,0 %
13.11.2007 2,1   0,0 1,0   9 1009,8 82,0 90,0 1 77,5 %
14.11.2007 1,3   0,0 0,0   6 1017,6 71,0 45,0 1 70,0 %
15.11.2007 -1,2   0,0 1,0   9 1024,0 85,0 292,5 1 75,0 %
16.11.2007 3,6   0,5 0,0   1 1021,0 91,0 337,5   60,0 %
17.11.2007 6,2   0,3 0,0   0 1017,3 93,0 112,5   60,0 %
18.11.2007 9,1   0,0 5,0   0 1011,2 76,0 180,0   60,0 %
19.11.2007 4,0   4,0 0,0   10 1017,9 85,0 315,0 1 80,0 %
20.11.2007 3,6   0,0 2,0   0 1017,6 89,0 225,0   57,5 %
21.11.2007 6,8   5,0 6,0   0 1010,2 66,0 45,0   55,0 %
22.11.2007 8,7   4,1 12,0   0 998,6 76,0 180,0   52,5 %
23.11.2007 3,8   5,0 17,0   9 1004,1 66,0 0,0 1 67,5 %
24.11.2007 3,4   0,0 13,0   0 1013,2 71,0 157,5   50,0 %
25.11.2007 5,4   17,0 16,0   1 998,0 81,0 0,0 1 40,0 %
26.11.2007 1,2   2,5 9,0   2 1017,6 83,0 0,0 1 55,0 %
27.11.2007 -0,3   0,0 0,0   8 1024,4 73,0 315,0 1 72,5 %
28.11.2007 6,7   3,5 7,0   0 1010,8 91,0 180,0   55,0 %
29.11.2007 6,5   30,0 5,0   4 991,9 86,0 202,5 1 42,5 %
30.11.2007 4,9   6,5 0,0   0 995,6 85,0 270,0   52,5 %
                       
Avrg/Sum 4,8   141,5 5,6   4,0 1011,1 80,5 180,0 18 62,3 %